PHX weather

Phoenix Sky Harbor International Airport
Phoenix, Arizona, United States

Public forecast

Using degrees Fahrenheit for public forecast. Weather courtesy of forecast.io.

METAR (pilot weather report)

Retrieved 2018/10/19 08:51 UTC (26 minutes ago):

KPHX 190851Z 05009KT 10SM CLR 21/10 A3001 RMK AO2 SLP149 T02060100 53001

TAF (pilot weather forecast)

Retrieved 2018/10/19 06:27 UTC (3 hours ago):

TAF KPHX 190523Z 1906/2012 07007KT P6SM SKC FM190900 08006KT P6SM SKC WS015/09025KT FM191600 08012KT P6SM FEW080 FM200200 01008KT P6SM SCT080 FM200700 08008KT P6SM BKN080